sensor_id;sensor_type;location;lat;lon;timestamp;temperature;humidity
27413;DHT22;14871;52.702;5.230;2023-08-08T00:01:54;18.00;99.90
27413;DHT22;14871;52.702;5.230;2023-08-08T00:04:19;18.00;99.90
27413;DHT22;14871;52.702;5.230;2023-08-08T00:06:45;18.00;99.90
27413;DHT22;14871;52.702;5.230;2023-08-08T00:09:10;18.10;99.90
27413;DHT22;14871;52.702;5.230;2023-08-08T00:11:36;18.00;99.90
27413;DHT22;14871;52.702;5.230;2023-08-08T00:14:02;18.10;99.90
27413;DHT22;14871;52.702;5.230;2023-08-08T00:16:27;18.10;99.90
27413;DHT22;14871;52.702;5.230;2023-08-08T00:18:53;18.10;99.90
27413;DHT22;14871;52.702;5.230;2023-08-08T00:21:20;18.10;99.90
27413;DHT22;14871;52.702;5.230;2023-08-08T00:23:46;18.10;99.90
27413;DHT22;14871;52.702;5.230;2023-08-08T00:26:11;18.10;99.90
27413;DHT22;14871;52.702;5.230;2023-08-08T00:28:37;18.10;99.90
27413;DHT22;14871;52.702;5.230;2023-08-08T00:31:03;18.00;99.90
27413;DHT22;14871;52.702;5.230;2023-08-08T00:33:28;18.00;99.90
27413;DHT22;14871;52.702;5.230;2023-08-08T00:35:54;18.10;99.90
27413;DHT22;14871;52.702;5.230;2023-08-08T00:38:20;18.00;99.90
27413;DHT22;14871;52.702;5.230;2023-08-08T00:40:46;18.00;99.90
27413;DHT22;14871;52.702;5.230;2023-08-08T00:43:11;18.10;99.90
27413;DHT22;14871;52.702;5.230;2023-08-08T00:45:38;18.10;99.90
27413;DHT22;14871;52.702;5.230;2023-08-08T00:48:05;18.10;99.90
27413;DHT22;14871;52.702;5.230;2023-08-08T00:50:31;18.00;99.90
27413;DHT22;14871;52.702;5.230;2023-08-08T00:52:57;18.10;99.90
27413;DHT22;14871;52.702;5.230;2023-08-08T00:55:23;18.00;99.90
27413;DHT22;14871;52.702;5.230;2023-08-08T00:57:49;18.00;99.90
27413;DHT22;14871;52.702;5.230;2023-08-08T01:00:14;18.10;99.90
27413;DHT22;14871;52.702;5.230;2023-08-08T01:02:40;18.00;99.90
27413;DHT22;14871;52.702;5.230;2023-08-08T01:05:07;18.00;99.90
27413;DHT22;14871;52.702;5.230;2023-08-08T01:10:34;18.00;99.90
27413;DHT22;14871;52.702;5.230;2023-08-08T01:13:08;17.80;99.90
27413;DHT22;14871;52.702;5.230;2023-08-08T01:15:35;17.70;99.90
27413;DHT22;14871;52.702;5.230;2023-08-08T01:18:05;17.80;99.90
27413;DHT22;14871;52.702;5.230;2023-08-08T01:20:35;17.90;99.90
27413;DHT22;14871;52.702;5.230;2023-08-08T01:25:38;17.90;99.90
27413;DHT22;14871;52.702;5.230;2023-08-08T01:28:04;17.80;99.90
27413;DHT22;14871;52.702;5.230;2023-08-08T01:30:30;17.70;99.90
27413;DHT22;14871;52.702;5.230;2023-08-08T01:32:56;17.80;99.90
27413;DHT22;14871;52.702;5.230;2023-08-08T01:35:24;17.80;99.90
27413;DHT22;14871;52.702;5.230;2023-08-08T01:37:56;17.90;99.90
27413;DHT22;14871;52.702;5.230;2023-08-08T01:40:24;17.80;99.90
27413;DHT22;14871;52.702;5.230;2023-08-08T01:42:50;17.80;99.90
27413;DHT22;14871;52.702;5.230;2023-08-08T01:45:16;17.70;99.90
27413;DHT22;14871;52.702;5.230;2023-08-08T01:47:42;17.80;99.90
27413;DHT22;14871;52.702;5.230;2023-08-08T01:50:08;17.70;99.90
27413;DHT22;14871;52.702;5.230;2023-08-08T01:52:34;17.80;99.90
27413;DHT22;14871;52.702;5.230;2023-08-08T01:55:00;17.80;99.90
27413;DHT22;14871;52.702;5.230;2023-08-08T01:57:26;17.80;99.90
27413;DHT22;14871;52.702;5.230;2023-08-08T01:59:52;17.70;99.90
27413;DHT22;14871;52.702;5.230;2023-08-08T02:02:17;17.80;99.90
27413;DHT22;14871;52.702;5.230;2023-08-08T02:04:43;17.80;99.90
27413;DHT22;14871;52.702;5.230;2023-08-08T02:07:09;17.60;99.90
27413;DHT22;14871;52.702;5.230;2023-08-08T02:09:35;17.70;99.90
27413;DHT22;14871;52.702;5.230;2023-08-08T02:12:00;17.70;99.90
27413;DHT22;14871;52.702;5.230;2023-08-08T02:14:26;17.70;99.90
27413;DHT22;14871;52.702;5.230;2023-08-08T02:16:51;17.60;99.90
27413;DHT22;14871;52.702;5.230;2023-08-08T02:19:17;17.60;99.90
27413;DHT22;14871;52.702;5.230;2023-08-08T02:21:43;17.60;99.90
27413;DHT22;14871;52.702;5.230;2023-08-08T02:24:08;17.60;99.90
27413;DHT22;14871;52.702;5.230;2023-08-08T02:26:34;17.60;99.90
27413;DHT22;14871;52.702;5.230;2023-08-08T02:29:00;17.60;99.90
27413;DHT22;14871;52.702;5.230;2023-08-08T02:31:25;17.60;99.90
27413;DHT22;14871;52.702;5.230;2023-08-08T02:33:51;17.60;99.90
27413;DHT22;14871;52.702;5.230;2023-08-08T02:36:18;17.60;99.90
27413;DHT22;14871;52.702;5.230;2023-08-08T02:38:44;17.50;99.90
27413;DHT22;14871;52.702;5.230;2023-08-08T02:41:10;17.60;99.90
27413;DHT22;14871;52.702;5.230;2023-08-08T02:43:36;17.50;99.90
27413;DHT22;14871;52.702;5.230;2023-08-08T02:46:01;17.50;99.90
27413;DHT22;14871;52.702;5.230;2023-08-08T02:48:29;17.50;99.90
27413;DHT22;14871;52.702;5.230;2023-08-08T02:50:55;17.40;99.90
27413;DHT22;14871;52.702;5.230;2023-08-08T02:53:20;17.50;99.90
27413;DHT22;14871;52.702;5.230;2023-08-08T02:55:47;17.50;99.90
27413;DHT22;14871;52.702;5.230;2023-08-08T02:58:12;17.40;99.90
27413;DHT22;14871;52.702;5.230;2023-08-08T03:00:38;17.50;99.90
27413;DHT22;14871;52.702;5.230;2023-08-08T03:03:04;17.40;99.90
27413;DHT22;14871;52.702;5.230;2023-08-08T03:05:29;17.40;99.90
27413;DHT22;14871;52.702;5.230;2023-08-08T03:07:55;17.50;99.90
27413;DHT22;14871;52.702;5.230;2023-08-08T03:10:20;17.40;99.90
27413;DHT22;14871;52.702;5.230;2023-08-08T03:12:46;17.30;99.90
27413;DHT22;14871;52.702;5.230;2023-08-08T03:15:12;17.30;99.90
27413;DHT22;14871;52.702;5.230;2023-08-08T03:17:37;17.20;99.90
27413;DHT22;14871;52.702;5.230;2023-08-08T03:20:03;17.30;99.90
27413;DHT22;14871;52.702;5.230;2023-08-08T03:22:31;17.20;99.90
27413;DHT22;14871;52.702;5.230;2023-08-08T03:24:56;17.20;99.90
27413;DHT22;14871;52.702;5.230;2023-08-08T03:27:22;17.00;99.90
27413;DHT22;14871;52.702;5.230;2023-08-08T03:29:48;17.00;99.90
27413;DHT22;14871;52.702;5.230;2023-08-08T03:32:13;17.00;99.90
27413;DHT22;14871;52.702;5.230;2023-08-08T03:34:39;17.10;99.90
27413;DHT22;14871;52.702;5.230;2023-08-08T03:37:05;17.00;99.90
27413;DHT22;14871;52.702;5.230;2023-08-08T03:39:30;17.00;99.90
27413;DHT22;14871;52.702;5.230;2023-08-08T03:41:56;17.00;99.90
27413;DHT22;14871;52.702;5.230;2023-08-08T03:44:22;17.00;99.90
27413;DHT22;14871;52.702;5.230;2023-08-08T03:46:47;17.00;99.90
27413;DHT22;14871;52.702;5.230;2023-08-08T03:49:13;16.80;99.90
27413;DHT22;14871;52.702;5.230;2023-08-08T03:51:38;16.90;99.90
27413;DHT22;14871;52.702;5.230;2023-08-08T03:54:04;16.90;99.90
27413;DHT22;14871;52.702;5.230;2023-08-08T03:56:30;16.90;99.90
27413;DHT22;14871;52.702;5.230;2023-08-08T03:58:55;16.90;99.90
27413;DHT22;14871;52.702;5.230;2023-08-08T04:01:22;16.80;99.90
27413;DHT22;14871;52.702;5.230;2023-08-08T04:03:48;16.70;99.90
27413;DHT22;14871;52.702;5.230;2023-08-08T04:06:13;16.70;99.90
27413;DHT22;14871;52.702;5.230;2023-08-08T04:08:39;16.60;99.90
27413;DHT22;14871;52.702;5.230;2023-08-08T04:11:04;16.70;99.90
27413;DHT22;14871;52.702;5.230;2023-08-08T04:13:30;16.70;99.90
27413;DHT22;14871;52.702;5.230;2023-08-08T04:15:56;16.60;99.90
27413;DHT22;14871;52.702;5.230;2023-08-08T04:18:21;16.60;99.90
27413;DHT22;14871;52.702;5.230;2023-08-08T04:20:47;16.60;99.90
27413;DHT22;14871;52.702;5.230;2023-08-08T04:23:13;16.60;99.90
27413;DHT22;14871;52.702;5.230;2023-08-08T04:25:39;16.60;99.90
27413;DHT22;14871;52.702;5.230;2023-08-08T04:28:04;16.60;99.90
27413;DHT22;14871;52.702;5.230;2023-08-08T04:30:30;16.70;99.90
27413;DHT22;14871;52.702;5.230;2023-08-08T04:32:56;16.60;99.90
27413;DHT22;14871;52.702;5.230;2023-08-08T04:35:21;16.50;99.90
27413;DHT22;14871;52.702;5.230;2023-08-08T04:37:47;16.50;99.90
27413;DHT22;14871;52.702;5.230;2023-08-08T04:40:12;16.50;99.90
27413;DHT22;14871;52.702;5.230;2023-08-08T04:42:38;16.50;99.90
27413;DHT22;14871;52.702;5.230;2023-08-08T04:45:05;16.60;99.90
27413;DHT22;14871;52.702;5.230;2023-08-08T04:47:30;16.60;99.90
27413;DHT22;14871;52.702;5.230;2023-08-08T04:49:56;16.50;99.90
27413;DHT22;14871;52.702;5.230;2023-08-08T04:52:21;16.50;99.90
27413;DHT22;14871;52.702;5.230;2023-08-08T04:54:47;16.60;99.90
27413;DHT22;14871;52.702;5.230;2023-08-08T04:57:13;16.70;99.90
27413;DHT22;14871;52.702;5.230;2023-08-08T04:59:38;16.60;99.90
27413;DHT22;14871;52.702;5.230;2023-08-08T05:02:04;16.50;99.90
27413;DHT22;14871;52.702;5.230;2023-08-08T05:04:30;16.50;99.90
27413;DHT22;14871;52.702;5.230;2023-08-08T05:06:56;16.50;99.90
27413;DHT22;14871;52.702;5.230;2023-08-08T05:09:23;16.40;99.90
27413;DHT22;14871;52.702;5.230;2023-08-08T05:11:52;16.70;99.90
27413;DHT22;14871;52.702;5.230;2023-08-08T05:14:18;16.50;99.90
27413;DHT22;14871;52.702;5.230;2023-08-08T05:16:44;16.50;99.90
27413;DHT22;14871;52.702;5.230;2023-08-08T05:19:09;16.50;99.90
27413;DHT22;14871;52.702;5.230;2023-08-08T05:21:35;16.60;99.90
27413;DHT22;14871;52.702;5.230;2023-08-08T05:24:01;16.60;99.90
27413;DHT22;14871;52.702;5.230;2023-08-08T05:26:26;16.70;99.90
27413;DHT22;14871;52.702;5.230;2023-08-08T05:28:52;16.70;99.90
27413;DHT22;14871;52.702;5.230;2023-08-08T05:31:17;16.70;99.90
27413;DHT22;14871;52.702;5.230;2023-08-08T05:33:43;16.70;99.90
27413;DHT22;14871;52.702;5.230;2023-08-08T05:36:08;16.80;99.90
27413;DHT22;14871;52.702;5.230;2023-08-08T05:38:34;16.90;99.90
27413;DHT22;14871;52.702;5.230;2023-08-08T05:41:00;17.00;99.90
27413;DHT22;14871;52.702;5.230;2023-08-08T05:43:25;17.00;99.90
27413;DHT22;14871;52.702;5.230;2023-08-08T05:45:54;17.20;99.90
27413;DHT22;14871;52.702;5.230;2023-08-08T05:48:19;17.30;99.90
27413;DHT22;14871;52.702;5.230;2023-08-08T05:50:45;17.10;99.90
27413;DHT22;14871;52.702;5.230;2023-08-08T05:53:10;17.20;99.90
27413;DHT22;14871;52.702;5.230;2023-08-08T05:55:37;17.20;99.90
27413;DHT22;14871;52.702;5.230;2023-08-08T05:58:02;17.20;99.90
27413;DHT22;14871;52.702;5.230;2023-08-08T06:00:30;17.10;99.90
27413;DHT22;14871;52.702;5.230;2023-08-08T06:02:55;17.30;99.90
27413;DHT22;14871;52.702;5.230;2023-08-08T06:05:22;17.30;99.90
27413;DHT22;14871;52.702;5.230;2023-08-08T06:07:47;17.40;99.90
27413;DHT22;14871;52.702;5.230;2023-08-08T06:10:13;17.30;99.90
27413;DHT22;14871;52.702;5.230;2023-08-08T06:12:38;17.40;99.90
27413;DHT22;14871;52.702;5.230;2023-08-08T06:15:05;17.40;99.90
27413;DHT22;14871;52.702;5.230;2023-08-08T06:17:30;17.30;99.90
27413;DHT22;14871;52.702;5.230;2023-08-08T06:19:56;17.30;99.90
27413;DHT22;14871;52.702;5.230;2023-08-08T06:22:22;17.40;99.90
27413;DHT22;14871;52.702;5.230;2023-08-08T06:24:48;17.40;99.90
27413;DHT22;14871;52.702;5.230;2023-08-08T06:27:13;17.40;99.90
27413;DHT22;14871;52.702;5.230;2023-08-08T06:29:39;17.50;99.90
27413;DHT22;14871;52.702;5.230;2023-08-08T06:32:05;17.50;99.90
27413;DHT22;14871;52.702;5.230;2023-08-08T06:34:31;17.70;99.90
27413;DHT22;14871;52.702;5.230;2023-08-08T06:36:56;17.60;99.90
27413;DHT22;14871;52.702;5.230;2023-08-08T06:39:22;17.60;99.90
27413;DHT22;14871;52.702;5.230;2023-08-08T06:41:48;17.70;99.90
27413;DHT22;14871;52.702;5.230;2023-08-08T06:44:13;17.90;99.90
27413;DHT22;14871;52.702;5.230;2023-08-08T06:46:39;18.00;99.90
27413;DHT22;14871;52.702;5.230;2023-08-08T06:49:05;18.10;99.90
27413;DHT22;14871;52.702;5.230;2023-08-08T06:51:32;18.40;99.90
27413;DHT22;14871;52.702;5.230;2023-08-08T06:53:58;18.40;99.90
27413;DHT22;14871;52.702;5.230;2023-08-08T06:56:24;18.60;99.90
27413;DHT22;14871;52.702;5.230;2023-08-08T06:58:51;18.60;99.90
27413;DHT22;14871;52.702;5.230;2023-08-08T07:01:17;18.60;99.90
27413;DHT22;14871;52.702;5.230;2023-08-08T07:03:42;18.80;99.90
27413;DHT22;14871;52.702;5.230;2023-08-08T07:06:09;19.00;99.90
27413;DHT22;14871;52.702;5.230;2023-08-08T07:08:35;18.90;99.90
27413;DHT22;14871;52.702;5.230;2023-08-08T07:11:01;18.80;99.90
27413;DHT22;14871;52.702;5.230;2023-08-08T07:13:26;18.80;99.90
27413;DHT22;14871;52.702;5.230;2023-08-08T07:15:52;18.90;99.90
27413;DHT22;14871;52.702;5.230;2023-08-08T07:18:17;18.80;99.90
27413;DHT22;14871;52.702;5.230;2023-08-08T07:20:43;19.00;99.90
27413;DHT22;14871;52.702;5.230;2023-08-08T07:23:09;19.00;99.90
27413;DHT22;14871;52.702;5.230;2023-08-08T07:25:34;19.10;99.90
27413;DHT22;14871;52.702;5.230;2023-08-08T07:28:00;19.00;99.90
27413;DHT22;14871;52.702;5.230;2023-08-08T07:30:26;19.10;99.90
27413;DHT22;14871;52.702;5.230;2023-08-08T07:32:52;19.10;99.90
27413;DHT22;14871;52.702;5.230;2023-08-08T07:35:17;19.10;99.90
27413;DHT22;14871;52.702;5.230;2023-08-08T07:37:43;19.00;99.90
27413;DHT22;14871;52.702;5.230;2023-08-08T07:40:20;19.10;99.90
27413;DHT22;14871;52.702;5.230;2023-08-08T07:42:47;19.00;99.90
27413;DHT22;14871;52.702;5.230;2023-08-08T07:45:13;19.30;99.90
27413;DHT22;14871;52.702;5.230;2023-08-08T07:47:39;19.20;99.90
27413;DHT22;14871;52.702;5.230;2023-08-08T07:50:05;19.30;99.90
27413;DHT22;14871;52.702;5.230;2023-08-08T07:52:34;19.40;99.90
27413;DHT22;14871;52.702;5.230;2023-08-08T07:54:59;19.10;99.90
27413;DHT22;14871;52.702;5.230;2023-08-08T07:57:26;19.00;99.90
27413;DHT22;14871;52.702;5.230;2023-08-08T07:59:52;19.20;99.90
27413;DHT22;14871;52.702;5.230;2023-08-08T08:02:17;19.40;99.90
27413;DHT22;14871;52.702;5.230;2023-08-08T08:04:43;19.40;99.90
27413;DHT22;14871;52.702;5.230;2023-08-08T08:07:09;19.60;99.90
27413;DHT22;14871;52.702;5.230;2023-08-08T08:09:34;19.60;99.90
27413;DHT22;14871;52.702;5.230;2023-08-08T08:12:00;19.70;99.90
27413;DHT22;14871;52.702;5.230;2023-08-08T08:14:26;19.80;99.90
27413;DHT22;14871;52.702;5.230;2023-08-08T08:16:51;19.80;99.90
27413;DHT22;14871;52.702;5.230;2023-08-08T08:19:17;19.70;99.90
27413;DHT22;14871;52.702;5.230;2023-08-08T08:21:42;19.60;99.90
27413;DHT22;14871;52.702;5.230;2023-08-08T08:24:08;19.80;99.90
27413;DHT22;14871;52.702;5.230;2023-08-08T08:26:34;19.80;99.90
27413;DHT22;14871;52.702;5.230;2023-08-08T08:28:59;19.80;99.90
27413;DHT22;14871;52.702;5.230;2023-08-08T08:31:25;19.80;99.90
27413;DHT22;14871;52.702;5.230;2023-08-08T08:33:51;19.90;99.90
27413;DHT22;14871;52.702;5.230;2023-08-08T08:36:16;20.00;99.90
27413;DHT22;14871;52.702;5.230;2023-08-08T08:38:42;20.10;99.90
27413;DHT22;14871;52.702;5.230;2023-08-08T08:41:09;20.10;99.90
27413;DHT22;14871;52.702;5.230;2023-08-08T08:43:38;20.00;99.90
27413;DHT22;14871;52.702;5.230;2023-08-08T08:46:04;20.10;99.90
27413;DHT22;14871;52.702;5.230;2023-08-08T08:48:29;20.30;99.90
27413;DHT22;14871;52.702;5.230;2023-08-08T08:50:56;20.20;99.90
27413;DHT22;14871;52.702;5.230;2023-08-08T08:53:23;20.50;99.90
27413;DHT22;14871;52.702;5.230;2023-08-08T08:55:49;20.50;99.90
27413;DHT22;14871;52.702;5.230;2023-08-08T08:58:15;20.70;99.90
27413;DHT22;14871;52.702;5.230;2023-08-08T09:00:46;20.90;99.90
27413;DHT22;14871;52.702;5.230;2023-08-08T09:03:13;20.70;99.90
27413;DHT22;14871;52.702;5.230;2023-08-08T09:05:39;20.70;99.90
27413;DHT22;14871;52.702;5.230;2023-08-08T09:08:07;20.80;99.90
27413;DHT22;14871;52.702;5.230;2023-08-08T09:10:33;20.70;99.90
27413;DHT22;14871;52.702;5.230;2023-08-08T09:13:00;20.40;99.90
27413;DHT22;14871;52.702;5.230;2023-08-08T09:15:31;20.30;99.90
27413;DHT22;14871;52.702;5.230;2023-08-08T09:17:57;20.30;99.90
27413;DHT22;14871;52.702;5.230;2023-08-08T09:20:23;20.20;99.90
27413;DHT22;14871;52.702;5.230;2023-08-08T09:22:51;20.00;99.90
27413;DHT22;14871;52.702;5.230;2023-08-08T09:25:17;20.10;99.90
27413;DHT22;14871;52.702;5.230;2023-08-08T09:27:44;20.10;99.90
27413;DHT22;14871;52.702;5.230;2023-08-08T09:30:10;20.20;99.90
27413;DHT22;14871;52.702;5.230;2023-08-08T09:32:37;20.10;99.90
27413;DHT22;14871;52.702;5.230;2023-08-08T09:35:03;20.30;99.90
27413;DHT22;14871;52.702;5.230;2023-08-08T09:37:35;20.40;99.90
27413;DHT22;14871;52.702;5.230;2023-08-08T09:40:02;20.70;99.90
27413;DHT22;14871;52.702;5.230;2023-08-08T09:42:29;20.60;99.90
27413;DHT22;14871;52.702;5.230;2023-08-08T09:44:58;20.90;99.90
27413;DHT22;14871;52.702;5.230;2023-08-08T09:47:24;20.90;99.90
27413;DHT22;14871;52.702;5.230;2023-08-08T09:49:50;20.90;99.90
27413;DHT22;14871;52.702;5.230;2023-08-08T09:52:16;20.60;99.90
27413;DHT22;14871;52.702;5.230;2023-08-08T09:54:42;20.60;99.90
27413;DHT22;14871;52.702;5.230;2023-08-08T09:57:08;20.60;99.90
27413;DHT22;14871;52.702;5.230;2023-08-08T09:59:35;20.70;99.90
27413;DHT22;14871;52.702;5.230;2023-08-08T10:02:01;20.70;99.90
27413;DHT22;14871;52.702;5.230;2023-08-08T10:04:27;20.60;99.90
27413;DHT22;14871;52.702;5.230;2023-08-08T10:06:52;20.70;99.90
27413;DHT22;14871;52.702;5.230;2023-08-08T10:09:18;20.40;99.90
27413;DHT22;14871;52.702;5.230;2023-08-08T10:11:44;20.40;99.90
27413;DHT22;14871;52.702;5.230;2023-08-08T10:14:11;20.50;99.90
27413;DHT22;14871;52.702;5.230;2023-08-08T10:16:37;20.40;99.90
27413;DHT22;14871;52.702;5.230;2023-08-08T10:19:04;20.30;99.90
27413;DHT22;14871;52.702;5.230;2023-08-08T10:21:35;20.30;99.90
27413;DHT22;14871;52.702;5.230;2023-08-08T10:24:08;20.00;99.90
27413;DHT22;14871;52.702;5.230;2023-08-08T10:26:55;19.70;99.90
27413;DHT22;14871;52.702;5.230;2023-08-08T10:29:25;19.50;99.90
27413;DHT22;14871;52.702;5.230;2023-08-08T10:31:58;19.50;99.90
27413;DHT22;14871;52.702;5.230;2023-08-08T10:34:40;19.50;99.90
27413;DHT22;14871;52.702;5.230;2023-08-08T10:37:13;19.50;99.90
27413;DHT22;14871;52.702;5.230;2023-08-08T10:39:57;19.80;99.90
27413;DHT22;14871;52.702;5.230;2023-08-08T10:42:25;20.10;99.90
27413;DHT22;14871;52.702;5.230;2023-08-08T10:44:58;20.30;99.90
27413;DHT22;14871;52.702;5.230;2023-08-08T10:47:30;20.70;99.90
27413;DHT22;14871;52.702;5.230;2023-08-08T10:50:10;20.70;99.90
27413;DHT22;14871;52.702;5.230;2023-08-08T11:00:27;20.70;99.90
27413;DHT22;14871;52.702;5.230;2023-08-08T11:02:54;20.50;99.90
27413;DHT22;14871;52.702;5.230;2023-08-08T11:05:22;20.70;99.90
27413;DHT22;14871;52.702;5.230;2023-08-08T11:07:48;20.70;99.90
27413;DHT22;14871;52.702;5.230;2023-08-08T11:10:14;20.80;99.90
27413;DHT22;14871;52.702;5.230;2023-08-08T11:12:39;21.00;99.90
27413;DHT22;14871;52.702;5.230;2023-08-08T11:15:06;21.20;99.90
27413;DHT22;14871;52.702;5.230;2023-08-08T11:17:32;20.90;99.90
27413;DHT22;14871;52.702;5.230;2023-08-08T11:19:57;21.00;99.90
27413;DHT22;14871;52.702;5.230;2023-08-08T11:22:23;21.00;99.90
27413;DHT22;14871;52.702;5.230;2023-08-08T11:24:49;20.90;99.90
27413;DHT22;14871;52.702;5.230;2023-08-08T11:27:16;20.80;99.90
27413;DHT22;14871;52.702;5.230;2023-08-08T11:29:49;20.80;99.90
27413;DHT22;14871;52.702;5.230;2023-08-08T11:32:16;20.80;99.90
27413;DHT22;14871;52.702;5.230;2023-08-08T11:34:41;20.80;99.90
27413;DHT22;14871;52.702;5.230;2023-08-08T11:37:08;20.60;99.90
27413;DHT22;14871;52.702;5.230;2023-08-08T11:39:34;20.60;99.90
27413;DHT22;14871;52.702;5.230;2023-08-08T11:42:00;20.70;99.90
27413;DHT22;14871;52.702;5.230;2023-08-08T11:44:26;20.90;99.90
27413;DHT22;14871;52.702;5.230;2023-08-08T11:46:52;20.90;99.90
27413;DHT22;14871;52.702;5.230;2023-08-08T11:49:17;21.40;99.90
27413;DHT22;14871;52.702;5.230;2023-08-08T11:51:44;21.70;99.90
27413;DHT22;14871;52.702;5.230;2023-08-08T11:54:11;22.00;99.90
27413;DHT22;14871;52.702;5.230;2023-08-08T11:56:37;22.00;99.90
27413;DHT22;14871;52.702;5.230;2023-08-08T11:59:03;22.20;99.90
27413;DHT22;14871;52.702;5.230;2023-08-08T12:01:32;22.30;99.90
27413;DHT22;14871;52.702;5.230;2023-08-08T12:03:58;22.10;99.90
27413;DHT22;14871;52.702;5.230;2023-08-08T12:06:29;22.00;99.90
27413;DHT22;14871;52.702;5.230;2023-08-08T12:08:55;21.80;99.90
27413;DHT22;14871;52.702;5.230;2023-08-08T12:11:21;21.50;99.90
27413;DHT22;14871;52.702;5.230;2023-08-08T12:13:47;21.70;99.90
27413;DHT22;14871;52.702;5.230;2023-08-08T12:16:14;21.70;99.90
27413;DHT22;14871;52.702;5.230;2023-08-08T12:18:40;21.80;99.90
27413;DHT22;14871;52.702;5.230;2023-08-08T12:21:07;21.90;99.90
27413;DHT22;14871;52.702;5.230;2023-08-08T12:23:34;21.80;99.90
27413;DHT22;14871;52.702;5.230;2023-08-08T12:26:02;21.80;99.90
27413;DHT22;14871;52.702;5.230;2023-08-08T12:28:28;21.90;99.90
27413;DHT22;14871;52.702;5.230;2023-08-08T12:30:54;21.70;99.90
27413;DHT22;14871;52.702;5.230;2023-08-08T12:33:20;22.00;99.90
27413;DHT22;14871;52.702;5.230;2023-08-08T12:35:46;22.00;99.90
27413;DHT22;14871;52.702;5.230;2023-08-08T12:38:12;22.00;99.90
27413;DHT22;14871;52.702;5.230;2023-08-08T12:40:38;22.30;99.90
27413;DHT22;14871;52.702;5.230;2023-08-08T12:43:04;21.80;99.90
27413;DHT22;14871;52.702;5.230;2023-08-08T12:45:29;21.60;99.90
27413;DHT22;14871;52.702;5.230;2023-08-08T12:47:55;22.00;99.90
27413;DHT22;14871;52.702;5.230;2023-08-08T12:50:21;22.00;99.90
27413;DHT22;14871;52.702;5.230;2023-08-08T12:52:46;21.80;99.90
27413;DHT22;14871;52.702;5.230;2023-08-08T12:55:12;22.00;99.90
27413;DHT22;14871;52.702;5.230;2023-08-08T12:57:37;22.10;99.90
27413;DHT22;14871;52.702;5.230;2023-08-08T13:00:04;22.10;99.90
27413;DHT22;14871;52.702;5.230;2023-08-08T13:02:32;22.00;99.90
27413;DHT22;14871;52.702;5.230;2023-08-08T13:04:58;22.10;99.90
27413;DHT22;14871;52.702;5.230;2023-08-08T13:07:23;22.10;99.90
27413;DHT22;14871;52.702;5.230;2023-08-08T13:09:49;21.90;99.90
27413;DHT22;14871;52.702;5.230;2023-08-08T13:12:15;21.80;99.90
27413;DHT22;14871;52.702;5.230;2023-08-08T13:14:40;21.90;99.90
27413;DHT22;14871;52.702;5.230;2023-08-08T13:17:06;22.20;99.90
27413;DHT22;14871;52.702;5.230;2023-08-08T13:19:32;22.20;99.90
27413;DHT22;14871;52.702;5.230;2023-08-08T13:21:57;22.30;99.90
27413;DHT22;14871;52.702;5.230;2023-08-08T13:24:23;22.20;99.90
27413;DHT22;14871;52.702;5.230;2023-08-08T13:26:51;22.50;99.90
27413;DHT22;14871;52.702;5.230;2023-08-08T13:29:17;22.50;99.90
27413;DHT22;14871;52.702;5.230;2023-08-08T13:31:42;22.80;99.90
27413;DHT22;14871;52.702;5.230;2023-08-08T13:34:09;22.60;99.90
27413;DHT22;14871;52.702;5.230;2023-08-08T13:36:34;22.30;99.90
27413;DHT22;14871;52.702;5.230;2023-08-08T13:39:00;22.30;99.90
27413;DHT22;14871;52.702;5.230;2023-08-08T13:41:26;22.10;99.90
27413;DHT22;14871;52.702;5.230;2023-08-08T13:43:52;22.20;99.90
27413;DHT22;14871;52.702;5.230;2023-08-08T13:46:17;22.40;99.90
27413;DHT22;14871;52.702;5.230;2023-08-08T13:48:43;22.30;99.90
27413;DHT22;14871;52.702;5.230;2023-08-08T13:51:08;22.50;99.90
27413;DHT22;14871;52.702;5.230;2023-08-08T13:53:34;22.50;99.90
27413;DHT22;14871;52.702;5.230;2023-08-08T13:56:00;22.60;99.90
27413;DHT22;14871;52.702;5.230;2023-08-08T13:58:25;22.60;99.90
27413;DHT22;14871;52.702;5.230;2023-08-08T14:00:51;22.50;99.90
27413;DHT22;14871;52.702;5.230;2023-08-08T14:03:18;22.30;99.90
27413;DHT22;14871;52.702;5.230;2023-08-08T14:05:44;22.10;99.90
27413;DHT22;14871;52.702;5.230;2023-08-08T14:08:10;22.10;99.90
27413;DHT22;14871;52.702;5.230;2023-08-08T14:10:36;22.00;99.90
27413;DHT22;14871;52.702;5.230;2023-08-08T14:13:02;22.00;99.90
27413;DHT22;14871;52.702;5.230;2023-08-08T14:15:28;21.80;99.90
27413;DHT22;14871;52.702;5.230;2023-08-08T14:17:55;21.90;99.90
27413;DHT22;14871;52.702;5.230;2023-08-08T14:20:21;22.00;99.90
27413;DHT22;14871;52.702;5.230;2023-08-08T14:22:46;22.20;99.90
27413;DHT22;14871;52.702;5.230;2023-08-08T14:25:13;22.60;99.90
27413;DHT22;14871;52.702;5.230;2023-08-08T14:27:39;22.50;99.90
27413;DHT22;14871;52.702;5.230;2023-08-08T14:30:05;22.60;99.90
27413;DHT22;14871;52.702;5.230;2023-08-08T14:32:31;22.60;99.90
27413;DHT22;14871;52.702;5.230;2023-08-08T14:34:56;22.80;99.90
27413;DHT22;14871;52.702;5.230;2023-08-08T14:37:22;22.80;99.90
27413;DHT22;14871;52.702;5.230;2023-08-08T14:39:48;22.60;99.90
27413;DHT22;14871;52.702;5.230;2023-08-08T14:42:13;22.70;99.90
27413;DHT22;14871;52.702;5.230;2023-08-08T14:44:39;22.50;99.90
27413;DHT22;14871;52.702;5.230;2023-08-08T14:47:05;22.60;99.90
27413;DHT22;14871;52.702;5.230;2023-08-08T14:49:31;22.50;99.90
27413;DHT22;14871;52.702;5.230;2023-08-08T14:51:56;22.80;98.90
27413;DHT22;14871;52.702;5.230;2023-08-08T14:54:22;22.80;98.90
27413;DHT22;14871;52.702;5.230;2023-08-08T14:56:48;22.80;98.30
27413;DHT22;14871;52.702;5.230;2023-08-08T14:59:14;22.70;98.60
27413;DHT22;14871;52.702;5.230;2023-08-08T15:01:39;23.00;98.00
27413;DHT22;14871;52.702;5.230;2023-08-08T15:04:05;23.10;98.20
27413;DHT22;14871;52.702;5.230;2023-08-08T15:06:31;22.70;98.10
27413;DHT22;14871;52.702;5.230;2023-08-08T15:08:57;22.70;98.30
27413;DHT22;14871;52.702;5.230;2023-08-08T15:11:23;22.40;98.40
27413;DHT22;14871;52.702;5.230;2023-08-08T15:13:48;22.10;98.90
27413;DHT22;14871;52.702;5.230;2023-08-08T15:16:14;22.10;99.60
27413;DHT22;14871;52.702;5.230;2023-08-08T15:18:40;22.00;99.40
27413;DHT22;14871;52.702;5.230;2023-08-08T15:21:06;22.10;99.90
27413;DHT22;14871;52.702;5.230;2023-08-08T15:23:31;22.00;99.90
27413;DHT22;14871;52.702;5.230;2023-08-08T15:25:59;22.10;99.90
27413;DHT22;14871;52.702;5.230;2023-08-08T15:28:25;22.10;99.90
27413;DHT22;14871;52.702;5.230;2023-08-08T15:30:51;22.00;99.90
27413;DHT22;14871;52.702;5.230;2023-08-08T15:33:16;21.70;99.90
27413;DHT22;14871;52.702;5.230;2023-08-08T15:35:42;21.70;99.90
27413;DHT22;14871;52.702;5.230;2023-08-08T15:38:09;21.70;99.90